Continental Highway — H9LY — position and weather

sailwx.info

Track history (hours):
 
Tides and Currents Weather Stations Pressure Air Temp Water Temp Dewpoint Dewpoint Depression Visibility Wind Speed Wind Dir Waves Ship Positions

Continental Highway

Last reported at 2018-Jan-10 03:49 UTC. Time now 2018-Jan-20 05:36 UTC.
Position N 40°28' W 073°51'.
Warning: this ship's position is 10 days out of date.

Length 199.9 m; beam 32.2 m.

Type: Cargo ship. MMSI: 351223000.

Date/timePositionNaut miles runAvg speedWind from/ knotsBaromVisibWave heightAir tempDewpointWater temp
2018-Jan-10 03:49N 40°28' W 073°51'3 9.8
2018-Jan-10 03:29N 40°29' W 073°55'510.9
2018-Jan-10 03:00N 40°31' W 074°01'612.2
2018-Jan-10 02:30N 40°37' W 074°03'3 6.8
2018-Jan-10 02:00N 40°39' W 074°07'2 4.6
2018-Jan-10 01:30N 40°41' W 074°08'1 1.1
2018-Jan-10 00:57N 40°41' W 074°08'0 0.0
2018-Jan-10 00:27N 40°41' W 074°08'0 0.0
2018-Jan-09 23:57N 40°41' W 074°08'0 0.0
2018-Jan-09 23:27N 40°41' W 074°08'0 0.0
2018-Jan-09 22:57N 40°41' W 074°08'0 0.0
2018-Jan-09 22:27N 40°41' W 074°08'0 0.0
2018-Jan-09 21:39N 40°41' W 074°08'0 0.0
2018-Jan-09 21:27N 40°41' W 074°08'0 0.0
2018-Jan-09 20:51N 40°41' W 074°08'0 0.0
2018-Jan-09 20:15N 40°41' W 074°08'0 0.0
2018-Jan-09 19:57N 40°41' W 074°08'0 0.0
2018-Jan-09 19:27N 40°41' W 074°08'0 0.0
2018-Jan-09 18:51N 40°41' W 074°08'0 0.0
2018-Jan-09 18:27N 40°41' W 074°08'0 0.0
2018-Jan-09 17:51N 40°41' W 074°08'0 0.0
2018-Jan-09 17:27N 40°41' W 074°08'0 0.0
2018-Jan-09 16:39N 40°41' W 074°08'0 0.0
2018-Jan-09 16:27N 40°41' W 074°08'0 0.0
2018-Jan-09 15:57N 40°41' W 074°08'0 0.0
2018-Jan-09 15:03N 40°41' W 074°08'0 0.0
2018-Jan-09 12:27N 40°41' W 074°08'0 0.0
2018-Jan-09 11:27N 40°41' W 074°08'0 0.1
2018-Jan-09 11:00N 40°41' W 074°08'3 5.6
2018-Jan-09 10:30N 40°39' W 074°09'3 6.0
2018-Jan-09 10:00N 40°39' W 074°05'3 6.9
2018-Jan-09 09:30N 40°36' W 074°03'4 7.8
2018-Jan-09 08:58N 40°32' W 074°01'510.7
2018-Jan-09 08:30N 40°30' W 073°56'14 7.2
2018-Jan-09 06:35N 40°30' W 073°37'0 0.3
2018-Jan-09 06:12N 40°30' W 073°37'0 0.0
2018-Jan-08 14:00N 40°30' W 073°37'0 0.0
2018-Jan-08 10:21N 40°30' W 073°37'0 0.0
2018-Jan-08 09:54N 40°30' W 073°37'0 0.0
2018-Jan-08 09:21N 40°30' W 073°37'0 0.0
2018-Jan-08 08:30N 40°30' W 073°37'44 3.9
2018-Jan-07 21:03N 39°46' W 073°42'  
Track history (hours):
 
Tides and Currents Weather Stations Pressure Air Temp Water Temp Dewpoint Dewpoint Depression Visibility Wind Speed Wind Dir Waves Ship Positions

Continental Highway

Last reported at 2018-Jan-10 03:49 UTC. Time now 2018-Jan-20 05:36 UTC.
Position N 40°28' W 073°51'.
Warning: this ship's position is 10 days out of date.

Length 199.9 m; beam 32.2 m.

Type: Cargo ship. MMSI: 351223000.

Date/timePositionNaut miles runAvg speedWind from/ knotsBaromVisibWave heightAir tempDewpointWater temp
2018-Jan-10 03:49N 40°28' W 073°51'3 9.8
2018-Jan-10 03:29N 40°29' W 073°55'510.9
2018-Jan-10 03:00N 40°31' W 074°01'612.2
2018-Jan-10 02:30N 40°37' W 074°03'3 6.8
2018-Jan-10 02:00N 40°39' W 074°07'2 4.6
2018-Jan-10 01:30N 40°41' W 074°08'1 1.1
2018-Jan-10 00:57N 40°41' W 074°08'0 0.0
2018-Jan-10 00:27N 40°41' W 074°08'0 0.0
2018-Jan-09 23:57N 40°41' W 074°08'0 0.0
2018-Jan-09 23:27N 40°41' W 074°08'0 0.0
2018-Jan-09 22:57N 40°41' W 074°08'0 0.0
2018-Jan-09 22:27N 40°41' W 074°08'0 0.0
2018-Jan-09 21:39N 40°41' W 074°08'0 0.0
2018-Jan-09 21:27N 40°41' W 074°08'0 0.0
2018-Jan-09 20:51N 40°41' W 074°08'0 0.0
2018-Jan-09 20:15N 40°41' W 074°08'0 0.0
2018-Jan-09 19:57N 40°41' W 074°08'0 0.0
2018-Jan-09 19:27N 40°41' W 074°08'0 0.0
2018-Jan-09 18:51N 40°41' W 074°08'0 0.0
2018-Jan-09 18:27N 40°41' W 074°08'0 0.0
2018-Jan-09 17:51N 40°41' W 074°08'0 0.0
2018-Jan-09 17:27N 40°41' W 074°08'0 0.0
2018-Jan-09 16:39N 40°41' W 074°08'0 0.0
2018-Jan-09 16:27N 40°41' W 074°08'0 0.0
2018-Jan-09 15:57N 40°41' W 074°08'0 0.0
2018-Jan-09 15:03N 40°41' W 074°08'0 0.0
2018-Jan-09 12:27N 40°41' W 074°08'0 0.0
2018-Jan-09 11:27N 40°41' W 074°08'0 0.1
2018-Jan-09 11:00N 40°41' W 074°08'3 5.6
2018-Jan-09 10:30N 40°39' W 074°09'3 6.0
2018-Jan-09 10:00N 40°39' W 074°05'3 6.9
2018-Jan-09 09:30N 40°36' W 074°03'4 7.8
2018-Jan-09 08:58N 40°32' W 074°01'510.7
2018-Jan-09 08:30N 40°30' W 073°56'14 7.2
2018-Jan-09 06:35N 40°30' W 073°37'0 0.3
2018-Jan-09 06:12N 40°30' W 073°37'0 0.0
2018-Jan-08 14:00N 40°30' W 073°37'0 0.0
2018-Jan-08 10:21N 40°30' W 073°37'0 0.0
2018-Jan-08 09:54N 40°30' W 073°37'0 0.0
2018-Jan-08 09:21N 40°30' W 073°37'0 0.0
2018-Jan-08 08:30N 40°30' W 073°37'44 3.9
2018-Jan-07 21:03N 39°46' W 073°42'  

Dump ship's entire track history